PASA

Details ICAO PASA (SVA)
Name SAVOONGA
Region USA (Alaska)
Timezone America/Nome (UTC-9.0)
Plans Departing 1
Arriving 2
Stats Elevation 53 ft / 16 m (AMSL)
Location 63.685846° -170.496691°
Runways 1
Magnetic Variation 7.524° E
Sunrise 2017-12-13 21:02:26 UTC / 2017-12-13 12:02:26 Local
Sunset 2017-12-14 01:33:13 UTC / 2017-12-13 16:33:13 Local
Advertisement - Login to hide

Runways

ID Width Length Bearing (true) Bearing (mag) Surface Threshold Offset Overrun Length
05 98 ft / 30 m 4,386 ft / 1,337 m 59.57° 52.05° Gravel 0 ft / 0 m 299 ft / 91 m
23 98 ft / 30 m 4,386 ft / 1,337 m 239.59° 232.07° Gravel 0 ft / 0 m 299 ft / 91 m

Map

Weather


0- 5 10 15 20 25 30 35+ Temperature / ° C

Clouds and Precipitation
Forecast for 2017-12-13 18:00 UTC. Updated 8 minutes ago

Ground ~20,000 ft ~40,000 ft Winds

METAR

PASA 131718Z AUTO 27018KT 10SM UP OVC015 M03/M04 A2937 RMK AO2 P0000 FZRANO $

TAF

Not found

Frequencies

Recorded 121.30 MHz AWOS 3
Unicom 122.70 MHz CTAF
Warning: Do not use this data for real-world aviation or navigation. No guarantee of current accuracy is given.